Airfield :
LOGIN :

Register | Disclaimer

   EN    FR    IT 

 










Legend :    VFR   Marginal VFR   IFR   Intensive IFR   Very Intensive IFR
Visi :
Ceiling :
>= 8 km
>= 3000ft
5 to 8 km
1000 to 3000 ft
1500m to 5 km
500 to 1000 ft
800 to 1500m
200 to 500 ft
< 800m
< 200 ft
Symbols :   Thunderstorms  Fog  Heavy snow  Heavy precipitations  Wind > 20 kt
SIGMETs :     Misc.  Thunderstorms  Icing  Turbulence  Mountain Waves  Volcanic Ashes







- Airport Elevation : 294 ft
- IATA code : NAP


LIRN - Naples Capodichino

CURRENT METAR :
  • 111720Z 03005KT 9999 FEW050 07/M00 Q1017 NOSIG

EXPIRED METARs :
  • 111650Z 09003KT 050V120 9999 SCT050 10/M01 Q1017 NOSIG
  • 111620Z 02005KT 260V060 9999 SCT050 10/M02 Q1017 NOSIG
  • 111550Z 36003KT 330V030 9999 FEW050 11/M00 Q1017 NOSIG
  • 111520Z 03004KT 9999 FEW050 11/00 Q1016 NOSIG
  • 111450Z 03003KT 9999 FEW050 11/01 Q1016 NOSIG
  • 111420Z 03005KT 9999 SCT050 12/M00 Q1016 NOSIG

TAF TAF LIRN
Valid from the 11 at 12:00 until the 12 at 12:00 UTC


111100Z 1112/1212 05008KT 9999 FEW030
No reported NOTAMs for that airfield.
1 SIGMET reported for the Roma FIR (LIRR) :
 
Severe turbulence
LIRR SIGMET 4 VALID 111430/111830 LIIB
LIRR ROMA FIR SEV TURB FCST E OF LINE N4135 E00932 - N3617 E01435 FL220/390 STNR NC=



MET'MAP, your aeronautical weather chart ! - Copyright ORBIFLY December 2007 - Disclaimer

ORBIFLY MET'MAP TEAM :

Programming & Development : Alexandra Zaïnal
Concept & Development : Baudouin d'Aumeries
Co-Development & Prog : Marc-Olivier Méhu
Technical & hardware support : Manuel Goepfert

Contact : metmap@orbifly.com




SOURCES & CREDITS :

   NOAA